Time;durP1;ratioP1;P1;durP2;ratioP2;P2;SDS_P1;SDS_P2;PMS_P1;PMS_P2;Temp;Humidity;BMP_temperature;BMP_pressure;BME280_temperature;BME280_humidity;BME280_pressure;Samples;Min_cycle;Max_cycle;Signal;HPM_P1;HPM_P2
2021/12/01 00:01:13;;;;;;;12.73;2.40;;;10.60;99.90;;;;;;4987344;28;19937;-77
2021/12/01 00:03:41;;;;;;;19.58;2.78;;;10.60;99.90;;;;;;4985788;28;20046;-77
2021/12/01 00:06:10;;;;;;;17.90;2.47;;;10.60;99.90;;;;;;4987296;28;20809;-78
2021/12/01 00:08:38;;;;;;;12.15;2.10;;;10.50;99.90;;;;;;5000243;28;20054;-78
2021/12/01 00:11:06;;;;;;;16.65;2.03;;;10.50;99.90;;;;;;4985812;28;20530;-77
2021/12/01 00:13:35;;;;;;;7.18;1.30;;;10.50;99.90;;;;;;4985039;28;20410;-77
2021/12/01 00:16:03;;;;;;;9.88;1.48;;;10.40;99.90;;;;;;4975286;28;20546;-78
2021/12/01 00:18:32;;;;;;;13.65;2.03;;;10.50;99.90;;;;;;5000680;28;20100;-78
2021/12/01 00:21:00;;;;;;;9.57;1.63;;;10.40;99.90;;;;;;4985578;28;20306;-77
2021/12/01 00:23:28;;;;;;;10.80;1.88;;;10.40;99.90;;;;;;5018415;28;20061;-78
2021/12/01 00:25:56;;;;;;;11.85;1.88;;;10.50;99.90;;;;;;5001620;28;20042;-76
2021/12/01 00:28:24;;;;;;;11.18;1.40;;;10.40;99.90;;;;;;4987078;28;20402;-78
2021/12/01 00:30:52;;;;;;;11.82;1.85;;;10.40;99.90;;;;;;4965838;28;20419;-77
2021/12/01 00:33:22;;;;;;;8.18;1.10;;;10.40;99.90;;;;;;4976922;28;20065;-77
2021/12/01 00:35:52;;;;;;;7.05;1.17;;;10.40;99.90;;;;;;4986166;28;20054;-78
2021/12/01 00:38:22;;;;;;;7.57;0.80;;;10.40;99.90;;;;;;4986887;28;20431;-76
2021/12/01 00:40:50;;;;;;;6.03;1.00;;;10.40;99.90;;;;;;5001436;28;20058;-77
2021/12/01 00:43:18;;;;;;;6.45;0.80;;;10.40;99.90;;;;;;5001541;28;20046;-77
2021/12/01 00:46:00;;;;;;;9.23;1.30;;;10.50;99.90;;;;;;4985130;28;20474;-77
2021/12/01 00:48:28;;;;;;;10.25;1.15;;;10.50;99.90;;;;;;4985387;28;20399;-78
2021/12/01 00:50:55;;;;;;;8.55;0.93;;;10.40;99.90;;;;;;5001165;28;20054;-77
2021/12/01 00:53:23;;;;;;;10.85;1.33;;;10.50;99.90;;;;;;4985114;28;20053;-77
2021/12/01 00:55:51;;;;;;;8.10;1.10;;;10.50;99.90;;;;;;5001158;28;20518;-76
2021/12/01 00:58:19;;;;;;;9.88;1.10;;;10.50;99.90;;;;;;5001031;28;20042;-77
2021/12/01 01:00:49;;;;;;;4.88;1.10;;;10.60;99.90;;;;;;4986196;28;20054;-77
2021/12/01 01:03:18;;;;;;;8.48;1.00;;;10.60;99.90;;;;;;4985916;28;20043;-77
2021/12/01 01:05:48;;;;;;;4.72;0.80;;;10.60;99.90;;;;;;4985362;28;20058;-77
2021/12/01 01:08:17;;;;;;;4.78;0.82;;;10.60;99.90;;;;;;4986295;28;20042;-76
2021/12/01 01:10:57;;;;;;;3.95;0.80;;;10.60;99.90;;;;;;4985763;28;20046;-77
2021/12/01 01:16:25;;;;;;;5.68;0.77;;;10.70;99.90;;;;;;4972697;28;20054;-78
2021/12/01 01:19:05;;;;;;;2.70;0.77;;;10.70;99.90;;;;;;4984312;28;20058;-77
2021/12/01 01:21:37;;;;;;;4.22;0.80;;;10.70;99.90;;;;;;4991794;28;20054;-77
2021/12/01 01:24:05;;;;;;;5.03;0.70;;;10.60;99.90;;;;;;4985348;28;20043;-77
2021/12/01 01:26:33;;;;;;;;;;;10.70;99.90;;;;;;4985884;28;20069;-75
2021/12/01 01:29:00;;;;;;;4.63;0.65;;;10.70;99.90;;;;;;5017089;28;20334;-75
2021/12/01 01:31:28;;;;;;;3.38;0.60;;;10.80;99.90;;;;;;4989115;28;20057;-76
2021/12/01 01:33:57;;;;;;;3.45;0.52;;;10.70;99.90;;;;;;4989876;28;20406;-76
2021/12/01 01:36:27;;;;;;;4.80;0.60;;;10.70;99.90;;;;;;4989759;28;20384;-76
2021/12/01 01:38:56;;;;;;;3.55;0.45;;;10.70;99.90;;;;;;5021739;28;20444;-78
2021/12/01 01:41:24;;;;;;;3.60;0.60;;;10.70;99.90;;;;;;4989989;28;20041;-77
2021/12/01 01:43:53;;;;;;;1.67;0.40;;;10.70;99.90;;;;;;4988560;28;20051;-75
2021/12/01 01:46:20;;;;;;;3.53;0.50;;;10.70;99.90;;;;;;4989208;28;20050;-77
2021/12/01 01:48:53;;;;;;;1.85;0.50;;;10.70;99.90;;;;;;5021313;28;20439;-75
2021/12/01 01:51:24;;;;;;;3.60;0.57;;;10.70;99.90;;;;;;5020928;28;20392;-76
2021/12/01 01:53:54;;;;;;;1.92;0.40;;;10.70;99.90;;;;;;4989375;28;20495;-76
2021/12/01 01:56:23;;;;;;;2.30;0.52;;;10.80;99.90;;;;;;5020055;28;20050;-76
2021/12/01 01:58:52;;;;;;;3.80;0.60;;;10.70;99.90;;;;;;4988639;28;20042;-76
2021/12/01 02:01:44;;;;;;;3.38;0.40;;;10.70;99.90;;;;;;4989362;28;20043;-76
2021/12/01 02:04:15;;;;;;;3.95;0.50;;;10.70;99.90;;;;;;5020470;28;20054;-75
2021/12/01 02:06:47;;;;;;;3.72;0.60;;;10.70;99.90;;;;;;5004115;28;20053;-75
2021/12/01 02:09:18;;;;;;;2.70;0.60;;;10.70;99.90;;;;;;4989685;28;20049;-75
2021/12/01 02:11:47;;;;;;;6.45;0.80;;;10.70;99.90;;;;;;4989317;28;20069;-76
2021/12/01 02:14:16;;;;;;;3.40;0.60;;;10.60;99.90;;;;;;4982673;28;20391;-77
2021/12/01 02:16:44;;;;;;;3.22;0.70;;;10.70;99.90;;;;;;4982702;28;20046;-74
2021/12/01 02:19:12;;;;;;;;;;;10.60;99.90;;;;;;4989389;28;20046;-75
2021/12/01 02:21:39;;;;;;;4.53;0.70;;;10.60;99.90;;;;;;4988466;28;20283;-77
2021/12/01 02:24:10;;;;;;;2.85;0.73;;;10.70;99.90;;;;;;5003289;28;20481;-75
2021/12/01 02:26:41;;;;;;;5.35;0.80;;;10.60;99.90;;;;;;5019422;28;20105;-78
2021/12/01 02:29:12;;;;;;;4.13;0.70;;;10.60;99.90;;;;;;4989295;28;20642;-78
2021/12/01 02:31:40;;;;;;;4.43;0.80;;;10.60;99.90;;;;;;4989145;28;20061;-78
2021/12/01 02:34:11;;;;;;;6.63;0.85;;;10.60;99.90;;;;;;4988603;28;20050;-77
2021/12/01 02:36:39;;;;;;;3.97;0.70;;;10.60;99.90;;;;;;4987243;28;20050;-76
2021/12/01 02:39:11;;;;;;;4.68;0.90;;;10.60;99.90;;;;;;5003966;28;20260;-75
2021/12/01 02:41:39;;;;;;;5.07;0.90;;;10.60;99.90;;;;;;4987360;28;20042;-76
2021/12/01 02:44:08;;;;;;;2.80;0.70;;;10.60;99.90;;;;;;4988971;28;20049;-77
2021/12/01 02:46:37;;;;;;;2.85;0.75;;;10.60;99.90;;;;;;4988679;28;20057;-76
2021/12/01 02:49:06;;;;;;;4.72;1.00;;;10.60;99.90;;;;;;5004297;28;20065;-76
2021/12/01 02:51:36;;;;;;;5.88;0.75;;;10.60;99.90;;;;;;5006806;28;20085;-76
2021/12/01 02:54:06;;;;;;;5.55;1.27;;;10.50;99.90;;;;;;4987542;28;20050;-76
2021/12/01 02:56:35;;;;;;;9.43;1.20;;;10.60;99.90;;;;;;4987512;28;20061;-76
2021/12/01 02:59:06;;;;;;;11.00;1.30;;;10.50;99.90;;;;;;4998390;28;20070;-77
2021/12/01 03:01:33;;;;;;;6.30;1.27;;;10.50;99.90;;;;;;4981826;28;20050;-77
2021/12/01 03:04:02;;;;;;;6.47;1.00;;;10.40;99.90;;;;;;4967872;28;20065;-77
2021/12/01 03:06:30;;;;;;;8.63;1.23;;;10.40;99.90;;;;;;4994631;28;20720;-76
2021/12/01 03:08:58;;;;;;;;;;;10.30;99.90;;;;;;4983720;28;20069;-77
2021/12/01 03:11:25;;;;;;;6.03;0.95;;;10.30;99.90;;;;;;4988627;28;19952;-75
2021/12/01 03:13:54;;;;;;;9.52;1.08;;;10.20;99.90;;;;;;4989120;28;20053;-77
2021/12/01 03:16:23;;;;;;;5.78;1.00;;;10.20;99.90;;;;;;4987393;28;20514;-76
2021/12/01 03:18:51;;;;;;;7.20;1.30;;;10.10;99.90;;;;;;4988369;28;20045;-76
2021/12/01 03:21:19;;;;;;;6.30;1.10;;;10.10;99.90;;;;;;4988666;28;20061;-77
2021/12/01 03:23:47;;;;;;;5.93;1.05;;;10.10;99.90;;;;;;4986677;28;20046;-76
2021/12/01 03:26:15;;;;;;;4.70;0.70;;;10.00;99.90;;;;;;4973849;28;20066;-76
2021/12/01 03:28:43;;;;;;;6.82;0.90;;;10.00;99.90;;;;;;4985732;28;20043;-77
2021/12/01 03:31:10;;;;;;;6.18;1.10;;;10.00;99.90;;;;;;4988676;28;20062;-77
2021/12/01 03:33:38;;;;;;;8.10;1.10;;;10.00;99.90;;;;;;5003467;28;20045;-78
2021/12/01 03:36:06;;;;;;;4.28;0.80;;;10.00;99.90;;;;;;4988276;28;20098;-78
2021/12/01 03:38:34;;;;;;;8.07;1.15;;;10.00;99.90;;;;;;4983415;28;20075;-77
2021/12/01 03:41:02;;;;;;;4.15;0.73;;;10.00;99.90;;;;;;4987897;28;20046;-77
2021/12/01 03:43:30;;;;;;;6.60;1.00;;;9.90;99.90;;;;;;4988295;28;20104;-77
2021/12/01 03:45:58;;;;;;;8.98;1.23;;;9.80;99.90;;;;;;4987042;28;20038;-77
2021/12/01 03:48:26;;;;;;;8.93;1.42;;;9.90;99.90;;;;;;4988495;28;20068;-77
2021/12/01 03:50:54;;;;;;;8.88;1.50;;;9.90;99.90;;;;;;4988043;28;20674;-75
2021/12/01 03:53:23;;;;;;;;;;;9.90;99.90;;;;;;5002609;28;20054;-75
2021/12/01 03:55:52;;;;;;;14.15;1.80;;;9.90;99.90;;;;;;4969781;28;19930;-74
2021/12/01 03:58:20;;;;;;;8.65;1.58;;;9.90;99.90;;;;;;5017605;28;20061;-77
2021/12/01 04:00:47;;;;;;;10.07;1.52;;;9.90;99.90;;;;;;4991660;28;20056;-78
2021/12/01 04:03:15;;;;;;;10.93;1.70;;;9.90;99.90;;;;;;4992076;28;20046;-76
2021/12/01 04:05:44;;;;;;;9.18;1.85;;;9.90;99.90;;;;;;4984995;28;20038;-78
2021/12/01 04:08:12;;;;;;;10.90;1.90;;;10.00;99.90;;;;;;4988004;28;20103;-77
2021/12/01 04:10:41;;;;;;;9.20;1.98;;;10.00;99.90;;;;;;4987250;28;20046;-75
2021/12/01 04:13:09;;;;;;;9.43;1.95;;;10.00;99.90;;;;;;4986663;28;20046;-77
2021/12/01 04:15:36;;;;;;;9.60;1.80;;;10.00;99.90;;;;;;5014579;28;20458;-77
2021/12/01 04:18:05;;;;;;;11.27;1.90;;;10.00;99.90;;;;;;5002064;28;20391;-78
2021/12/01 04:20:32;;;;;;;10.50;2.25;;;10.00;99.90;;;;;;4980965;28;20050;-78
2021/12/01 04:23:00;;;;;;;9.82;1.80;;;10.00;99.90;;;;;;4986081;28;20053;-77
2021/12/01 04:25:28;;;;;;;10.10;2.17;;;10.10;99.90;;;;;;4987397;28;20046;-76
2021/12/01 04:27:56;;;;;;;12.45;2.00;;;10.10;99.90;;;;;;4987414;28;20050;-76
2021/12/01 04:30:25;;;;;;;7.40;1.63;;;10.00;99.90;;;;;;5001897;28;20053;-78
2021/12/01 04:32:54;;;;;;;9.23;1.67;;;10.10;99.90;;;;;;4987238;28;20059;-77
2021/12/01 04:35:25;;;;;;;11.02;1.95;;;10.10;99.90;;;;;;4987253;28;20514;-77
2021/12/01 04:37:52;;;;;;;9.70;1.98;;;10.10;99.90;;;;;;4985960;28;20386;-77
2021/12/01 04:40:22;;;;;;;9.07;1.83;;;10.10;99.90;;;;;;5018054;28;20054;-77
2021/12/01 04:42:50;;;;;;;11.65;1.90;;;10.10;99.90;;;;;;4985598;28;20051;-77
2021/12/01 04:45:19;;;;;;;9.10;1.70;;;10.20;99.90;;;;;;4987309;28;20078;-79
2021/12/01 04:47:52;;;;;;;10.77;1.52;;;10.20;99.90;;;;;;4985893;28;20793;-76
2021/12/01 04:50:24;;;;;;;8.93;1.73;;;10.30;99.90;;;;;;4974421;28;20053;-77
2021/12/01 04:52:55;;;;;;;9.77;1.92;;;10.30;99.90;;;;;;4987129;28;20349;-77
2021/12/01 04:55:23;;;;;;;11.38;1.80;;;10.30;99.90;;;;;;4973828;28;20490;-77
2021/12/01 04:57:51;;;;;;;7.82;1.50;;;10.30;99.90;;;;;;5001830;28;20053;-75
2021/12/01 05:00:23;;;;;;;12.32;1.60;;;10.30;99.90;;;;;;4975982;28;20057;-76
2021/12/01 05:02:51;;;;;;;7.05;1.27;;;10.30;99.90;;;;;;4987109;28;20053;-77
2021/12/01 05:05:19;;;;;;;10.27;1.67;;;10.30;99.90;;;;;;5001850;28;20038;-78
2021/12/01 05:07:47;;;;;;;13.13;1.85;;;10.30;99.90;;;;;;4986286;28;20061;-76
2021/12/01 05:10:14;;;;;;;10.68;1.73;;;10.30;99.90;;;;;;4985476;28;20058;-76
2021/12/01 05:12:43;;;;;;;10.27;1.48;;;10.30;99.90;;;;;;4985815;28;20066;-78
2021/12/01 05:15:11;;;;;;;11.20;1.90;;;10.30;99.90;;;;;;4986556;28;20411;-76
2021/12/01 05:17:39;;;;;;;9.88;1.63;;;10.30;99.90;;;;;;4986944;28;20105;-75
2021/12/01 05:20:08;;;;;;;8.35;1.40;;;10.30;99.90;;;;;;4986466;28;20054;-77
2021/12/01 05:22:36;;;;;;;7.57;1.38;;;10.30;99.90;;;;;;4986370;28;20057;-76
2021/12/01 05:25:05;;;;;;;;;;;10.30;99.90;;;;;;4985075;28;20058;-79
2021/12/01 05:27:32;;;;;;;7.10;1.15;;;10.30;99.90;;;;;;5017833;28;19926;-77
2021/12/01 05:30:00;;;;;;;7.90;1.00;;;10.20;99.90;;;;;;4986860;28;20583;-76
2021/12/01 05:32:29;;;;;;;6.25;1.00;;;10.20;99.90;;;;;;4986441;28;20885;-78
2021/12/01 05:34:57;;;;;;;6.50;1.00;;;10.20;99.90;;;;;;5001951;28;20053;-78
2021/12/01 05:37:25;;;;;;;;;;;10.20;99.90;;;;;;4986937;28;20130;-77
2021/12/01 05:39:53;;;;;;;6.00;0.80;;;10.20;99.90;;;;;;4986410;28;19926;-77
2021/12/01 05:42:21;;;;;;;2.97;0.75;;;10.20;99.90;;;;;;4986425;28;20593;-77
2021/12/01 05:44:48;;;;;;;3.50;0.68;;;10.20;99.90;;;;;;4985943;28;20470;-77
2021/12/01 05:47:16;;;;;;;4.65;0.98;;;10.20;99.90;;;;;;4986007;28;20070;-79
2021/12/01 05:49:45;;;;;;;2.85;0.82;;;10.10;99.90;;;;;;5000931;28;20045;-77
2021/12/01 05:52:15;;;;;;;2.90;0.73;;;10.10;99.90;;;;;;4999282;28;20077;-77
2021/12/01 05:54:46;;;;;;;4.35;0.80;;;10.10;99.90;;;;;;4974659;28;20395;-76
2021/12/01 05:57:14;;;;;;;2.40;0.50;;;10.00;99.90;;;;;;4985607;28;20061;-76
2021/12/01 05:59:41;;;;;;;4.60;0.60;;;10.00;99.90;;;;;;5004820;28;20062;-77
2021/12/01 06:02:09;;;;;;;4.95;0.80;;;10.00;99.90;;;;;;5000190;28;20534;-77
2021/12/01 06:04:37;;;;;;;4.60;0.70;;;10.00;99.90;;;;;;4984515;28;20499;-77
2021/12/01 06:07:05;;;;;;;2.10;0.50;;;10.00;99.90;;;;;;4984534;28;20046;-77
2021/12/01 06:09:34;;;;;;;2.08;0.52;;;9.90;99.90;;;;;;4984639;28;20054;-77
2021/12/01 06:12:02;;;;;;;3.40;0.50;;;9.90;99.90;;;;;;4985210;28;20049;-76
2021/12/01 06:14:30;;;;;;;1.92;0.35;;;9.90;99.90;;;;;;4985969;28;20061;-76
2021/12/01 06:16:59;;;;;;;3.75;0.55;;;9.90;99.90;;;;;;4987834;28;20069;-77
2021/12/01 06:19:26;;;;;;;;;;;9.90;99.90;;;;;;5004782;28;20045;-77
2021/12/01 06:21:54;;;;;;;5.85;0.60;;;9.80;99.90;;;;;;4989016;28;20640;-77
2021/12/01 06:24:22;;;;;;;3.05;0.50;;;9.80;99.90;;;;;;4991060;28;20490;-76
2021/12/01 06:26:49;;;;;;;2.17;0.43;;;9.80;99.90;;;;;;4988996;28;20063;-76
2021/12/01 06:29:17;;;;;;;1.55;0.35;;;9.80;99.90;;;;;;4989611;28;20070;-75
2021/12/01 06:31:45;;;;;;;3.05;0.45;;;9.80;99.90;;;;;;5004115;28;20379;-76
2021/12/01 06:34:12;;;;;;;4.03;0.50;;;9.80;99.90;;;;;;4989166;28;20050;-76
2021/12/01 06:36:40;;;;;;;2.92;0.43;;;9.70;99.90;;;;;;4987886;28;20073;-76
2021/12/01 06:39:09;;;;;;;1.02;0.30;;;9.70;99.90;;;;;;4988992;28;20053;-76
2021/12/01 06:41:37;;;;;;;2.83;0.40;;;9.70;99.90;;;;;;4989005;28;20392;-75
2021/12/01 06:44:05;;;;;;;3.10;0.52;;;9.60;99.90;;;;;;4988880;28;20050;-76
2021/12/01 06:46:33;;;;;;;2.22;0.40;;;9.50;99.90;;;;;;5004030;28;20053;-75
2021/12/01 06:49:01;;;;;;;2.00;0.35;;;9.40;99.90;;;;;;4989143;28;20054;-76
2021/12/01 06:51:29;;;;;;;2.17;0.30;;;9.30;99.90;;;;;;5003986;28;20423;-76
2021/12/01 06:53:56;;;;;;;4.30;0.43;;;9.20;99.90;;;;;;5003667;28;20057;-76
2021/12/01 06:56:24;;;;;;;0.80;0.25;;;9.10;99.90;;;;;;5003004;28;20042;-77
2021/12/01 06:58:52;;;;;;;2.83;0.40;;;9.00;99.90;;;;;;5014626;28;20051;-76
2021/12/01 07:01:20;;;;;;;0.63;0.20;;;9.00;99.90;;;;;;4981587;28;20046;-80
2021/12/01 07:03:47;;;;;;;0.85;0.30;;;9.00;99.90;;;;;;4986392;28;20043;-76
2021/12/01 07:06:15;;;;;;;1.73;0.22;;;9.00;99.90;;;;;;4971725;28;20046;-75
2021/12/01 07:08:43;;;;;;;2.33;0.25;;;9.00;99.90;;;;;;4995092;28;20073;-76
2021/12/01 07:11:11;;;;;;;1.63;0.40;;;8.90;99.90;;;;;;4987244;28;20047;-75
2021/12/01 07:13:38;;;;;;;1.08;0.32;;;8.90;99.90;;;;;;4985841;28;20053;-75
2021/12/01 07:16:06;;;;;;;1.55;0.22;;;8.70;99.90;;;;;;4986965;28;21500;-75
2021/12/01 07:18:34;;;;;;;4.25;0.43;;;8.80;99.90;;;;;;4985795;28;20042;-75
2021/12/01 07:21:03;;;;;;;1.40;0.20;;;8.70;99.90;;;;;;4981728;28;20061;-75
2021/12/01 07:23:32;;;;;;;2.08;0.40;;;8.70;99.90;;;;;;4985520;28;20562;-77
2021/12/01 07:26:01;;;;;;;;;;;8.80;99.90;;;;;;4984585;28;20061;-77
2021/12/01 07:28:29;;;;;;;2.55;0.30;;;8.60;99.90;;;;;;4984420;28;19921;-77
2021/12/01 07:30:58;;;;;;;0.60;0.10;;;8.60;99.90;;;;;;4988130;28;20804;-75
2021/12/01 07:33:30;;;;;;;1.20;0.20;;;8.70;99.90;;;;;;4985329;28;20046;-74
2021/12/01 07:35:58;;;;;;;2.63;0.35;;;8.60;99.90;;;;;;4996492;28;20055;-77
2021/12/01 07:38:26;;;;;;;;;;;8.70;99.90;;;;;;5009147;28;20054;-77
2021/12/01 07:40:54;;;;;;;1.30;0.25;;;8.60;99.90;;;;;;4985037;28;19931;-77
2021/12/01 07:43:22;;;;;;;2.33;0.40;;;8.60;99.90;;;;;;4979606;28;20109;-76
2021/12/01 07:45:49;;;;;;;0.95;0.30;;;8.60;99.90;;;;;;4992769;28;20054;-77
2021/12/01 07:48:17;;;;;;;1.60;0.30;;;8.60;99.90;;;;;;4995206;28;20046;-77
2021/12/01 07:50:45;;;;;;;3.22;0.38;;;8.60;99.90;;;;;;4985457;28;20046;-76
2021/12/01 07:53:13;;;;;;;0.38;0.20;;;8.60;99.90;;;;;;4977386;28;20057;-77
2021/12/01 07:55:41;;;;;;;1.13;0.20;;;8.60;99.90;;;;;;4984527;28;20054;-75
2021/12/01 07:58:09;;;;;;;1.50;0.30;;;8.60;99.90;;;;;;4991720;28;20038;-75
2021/12/01 08:00:37;;;;;;;1.27;0.38;;;8.60;99.90;;;;;;5000827;28;20057;-78
2021/12/01 08:03:05;;;;;;;2.65;0.30;;;8.60;99.90;;;;;;4998232;28;20046;-77
2021/12/01 08:05:32;;;;;;;;;;;8.50;99.90;;;;;;4987026;28;20053;-77
2021/12/01 08:08:01;;;;;;;2.65;0.30;;;8.50;99.90;;;;;;4986671;28;19929;-76
2021/12/01 08:10:28;;;;;;;;;;;8.50;99.90;;;;;;4988707;28;20038;-77
2021/12/01 08:12:56;;;;;;;1.17;0.30;;;8.50;99.90;;;;;;5015152;28;20302;-76
2021/12/01 08:15:45;;;;;;;2.67;0.55;;;8.50;99.90;;;;;;4993240;28;20045;-76
2021/12/01 08:18:13;;;;;;;1.38;0.25;;;8.50;99.90;;;;;;4985978;28;20053;-76
2021/12/01 08:20:41;;;;;;;0.82;0.30;;;8.40;99.90;;;;;;4986284;28;20053;-76
2021/12/01 08:23:09;;;;;;;1.13;0.30;;;8.40;99.90;;;;;;4987142;28;20101;-75
2021/12/01 08:25:37;;;;;;;;;;;8.40;99.90;;;;;;4985749;28;20050;-76
2021/12/01 08:28:05;;;;;;;1.08;0.15;;;8.50;99.90;;;;;;5005714;28;19951;-76
2021/12/01 08:30:33;;;;;;;2.00;0.40;;;8.50;99.90;;;;;;4984777;28;20529;-76
2021/12/01 08:33:01;;;;;;;1.23;0.10;;;8.50;99.90;;;;;;4986375;28;20053;-74
2021/12/01 08:35:29;;;;;;;2.03;0.30;;;8.50;99.90;;;;;;4986653;28;20050;-77
2021/12/01 08:37:56;;;;;;;1.35;0.22;;;8.50;99.90;;;;;;5018535;28;20145;-76
2021/12/01 08:40:25;;;;;;;1.20;0.20;;;8.50;99.90;;;;;;4984524;28;20153;-76
2021/12/01 08:42:53;;;;;;;5.07;0.30;;;8.50;99.90;;;;;;4963964;28;20046;-75
2021/12/01 08:45:21;;;;;;;;;;;8.50;99.90;;;;;;4985704;28;20053;-76
2021/12/01 08:47:49;;;;;;;1.98;0.30;;;8.50;99.90;;;;;;4985424;28;19925;-77
2021/12/01 08:50:17;;;;;;;1.08;0.20;;;8.40;99.90;;;;;;4985361;28;20046;-75
2021/12/01 08:52:48;;;;;;;1.80;0.30;;;8.40;99.90;;;;;;4984551;28;20599;-75
2021/12/01 08:55:16;;;;;;;1.33;0.30;;;8.30;99.90;;;;;;4984263;28;20054;-75
2021/12/01 08:58:03;;;;;;;1.77;0.40;;;8.30;99.90;;;;;;4996607;28;20046;-75
2021/12/01 09:00:33;;;;;;;1.90;0.30;;;8.30;99.90;;;;;;4984363;28;20414;-76
2021/12/01 09:03:01;;;;;;;2.50;0.40;;;8.30;99.90;;;;;;4985465;28;20054;-74
2021/12/01 09:05:29;;;;;;;;;;;8.30;99.90;;;;;;4986076;28;20061;-74
2021/12/01 09:07:57;;;;;;;3.38;0.50;;;8.30;99.90;;;;;;4984013;28;19933;-74
2021/12/01 09:10:25;;;;;;;3.17;0.70;;;8.30;99.90;;;;;;4982117;28;20058;-74
2021/12/01 09:12:52;;;;;;;3.10;0.65;;;8.30;99.90;;;;;;4995711;28;20038;-78
2021/12/01 09:15:20;;;;;;;3.13;0.63;;;8.40;99.90;;;;;;4997081;28;20435;-78
2021/12/01 09:17:48;;;;;;;3.42;0.70;;;8.40;99.90;;;;;;4981886;28;20054;-77
2021/12/01 09:20:16;;;;;;;2.92;0.60;;;8.40;99.90;;;;;;4983529;28;20046;-80
2021/12/01 09:22:44;;;;;;;3.67;0.63;;;8.40;99.90;;;;;;4978840;28;20423;-79
2021/12/01 09:25:12;;;;;;;2.83;0.68;;;8.40;99.90;;;;;;4979618;28;20073;-79
2021/12/01 09:27:40;;;;;;;5.05;0.80;;;8.40;99.90;;;;;;4984643;28;20050;-75
2021/12/01 09:30:08;;;;;;;3.88;0.85;;;8.50;99.90;;;;;;4984297;28;20046;-79
2021/12/01 09:32:38;;;;;;;4.38;0.60;;;8.50;99.90;;;;;;4982657;28;20498;-78
2021/12/01 09:35:07;;;;;;;6.38;0.77;;;8.50;99.90;;;;;;4966400;28;20932;-78
2021/12/01 09:37:36;;;;;;;2.60;0.50;;;8.50;99.90;;;;;;5000730;28;20053;-78
2021/12/01 09:40:13;;;;;;;3.75;0.60;;;8.40;99.90;;;;;;4985378;28;20676;-82
2021/12/01 09:42:46;;;;;;;5.50;0.60;;;8.50;99.90;;;;;;4985250;28;20039;-78
2021/12/01 09:45:16;;;;;;;6.68;0.60;;;8.60;99.90;;;;;;4984792;28;20057;-75
2021/12/01 09:47:44;;;;;;;2.88;0.68;;;8.60;99.90;;;;;;5016607;28;20042;-77
2021/12/01 09:50:12;;;;;;;4.13;0.77;;;8.60;99.90;;;;;;5000258;28;20054;-78
2021/12/01 09:52:40;;;;;;;4.72;0.55;;;8.60;99.90;;;;;;4986690;28;20061;-77
2021/12/01 09:55:11;;;;;;;4.50;0.60;;;8.60;99.90;;;;;;4987788;28;20046;-81
2021/12/01 09:57:59;;;;;;;3.15;0.70;;;8.70;99.90;;;;;;4988862;28;20586;-80
2021/12/01 10:00:28;;;;;;;1.85;0.52;;;8.70;99.90;;;;;;4985255;28;20055;-79
2021/12/01 10:02:56;;;;;;;6.63;0.68;;;8.60;99.90;;;;;;4991045;28;20486;-79
2021/12/01 10:05:46;;;;;;;3.85;0.80;;;8.70;99.90;;;;;;4988888;28;20054;-80
2021/12/01 10:08:27;;;;;;;5.60;0.88;;;8.60;99.90;;;;;;4989069;28;20039;-77
2021/12/01 10:10:56;;;;;;;4.10;0.60;;;8.70;99.90;;;;;;4987339;28;20057;-77
2021/12/01 10:13:33;;;;;;;4.82;0.70;;;8.60;99.90;;;;;;4987432;28;20034;-77
2021/12/01 10:16:05;;;;;;;6.50;0.85;;;8.60;99.90;;;;;;4987928;28;20446;-78
2021/12/01 10:18:42;;;;;;;2.67;0.50;;;8.60;99.90;;;;;;4987505;28;20043;-77
2021/12/01 10:21:09;;;;;;;5.65;0.75;;;8.60;99.90;;;;;;4987888;28;20051;-74
2021/12/01 10:23:42;;;;;;;4.55;0.68;;;8.60;99.90;;;;;;4989295;28;20065;-75
2021/12/01 10:26:18;;;;;;;5.53;0.70;;;8.70;99.90;;;;;;4988128;28;20061;-75
2021/12/01 10:28:49;;;;;;;4.78;0.75;;;8.80;99.90;;;;;;4985708;28;20053;-74
2021/12/01 10:31:42;;;;;;;4.88;0.70;;;8.80;99.90;;;;;;4987614;28;20053;-78
2021/12/01 10:34:30;;;;;;;3.63;0.68;;;8.80;99.90;;;;;;5014563;28;20050;-77
2021/12/01 10:37:25;;;;;;;4.38;0.82;;;8.80;99.90;;;;;;4982447;28;20069;-76
2021/12/01 10:40:15;;;;;;;5.32;0.80;;;8.80;99.90;;;;;;4985436;28;20046;-75
2021/12/01 10:43:10;;;;;;;6.57;1.02;;;8.90;99.90;;;;;;4984507;28;20054;-76
2021/12/01 10:45:39;;;;;;;7.22;0.80;;;8.90;99.90;;;;;;4994471;28;20070;-74
2021/12/01 10:48:09;;;;;;;5.78;0.80;;;8.90;99.90;;;;;;4987357;28;20053;-74
2021/12/01 10:50:41;;;;;;;9.57;0.98;;;9.10;99.90;;;;;;4988350;28;20697;-75
2021/12/01 10:53:18;;;;;;;6.97;1.17;;;9.50;99.90;;;;;;4987606;28;20046;-74
2021/12/01 10:55:47;;;;;;;8.07;1.20;;;9.70;99.90;;;;;;5000720;28;20043;-75
2021/12/01 10:58:16;;;;;;;6.10;1.25;;;9.70;99.90;;;;;;4986097;28;20483;-74
2021/12/01 11:00:53;;;;;;;9.15;1.40;;;10.00;99.90;;;;;;4984753;28;20071;-75
2021/12/01 11:03:24;;;;;;;6.80;1.50;;;10.40;99.90;;;;;;4985421;28;20629;-75
2021/12/01 11:05:57;;;;;;;6.93;0.90;;;10.80;99.90;;;;;;4987440;28;20387;-73
2021/12/01 11:08:31;;;;;;;5.68;1.15;;;11.00;99.90;;;;;;4985710;28;20736;-74
2021/12/01 11:11:14;;;;;;;7.38;1.33;;;10.90;99.90;;;;;;4980413;28;20049;-74
2021/12/01 11:14:16;;;;;;;7.72;1.15;;;11.00;99.90;;;;;;4987245;28;20053;-74
2021/12/01 11:16:45;;;;;;;8.18;1.52;;;11.30;99.90;;;;;;4970377;28;20042;-74
2021/12/01 11:19:13;;;;;;;8.35;1.42;;;11.50;99.90;;;;;;4984805;28;20054;-74
2021/12/01 11:21:42;;;;;;;12.00;1.52;;;11.60;99.90;;;;;;4989732;28;20054;-75
2021/12/01 11:24:12;;;;;;;8.95;1.45;;;11.50;99.90;;;;;;4985598;28;20046;-75
2021/12/01 11:26:43;;;;;;;10.40;1.83;;;11.40;99.90;;;;;;4983677;28;20068;-73
2021/12/01 11:29:31;;;;;;;10.82;1.85;;;11.20;99.90;;;;;;4987100;28;20038;-74
2021/12/01 11:32:00;;;;;;;;;;;11.00;99.90;;;;;;4988853;28;20395;-75
2021/12/01 11:34:28;;;;;;;7.88;1.60;;;10.70;99.90;;;;;;4970795;28;19972;-74
2021/12/01 11:36:56;;;;;;;;;;;10.70;99.90;;;;;;4988777;28;20061;-73
2021/12/01 11:39:29;;;;;;;;;;;10.50;99.90;;;;;;4988109;28;19937;-74
2021/12/01 11:41:57;;;;;;;11.20;1.70;;;10.50;99.90;;;;;;5013806;28;19933;-74
2021/12/01 11:44:25;;;;;;;12.02;1.88;;;10.40;99.90;;;;;;4978026;28;20050;-73
2021/12/01 11:46:53;;;;;;;8.98;1.67;;;10.60;99.90;;;;;;4983687;28;20042;-73
2021/12/01 11:49:23;;;;;;;9.50;1.80;;;11.00;99.90;;;;;;4984738;28;20165;-74
2021/12/01 11:51:57;;;;;;;11.15;1.73;;;11.20;99.90;;;;;;4986312;28;20061;-75
2021/12/01 11:54:27;;;;;;;8.68;1.38;;;11.40;99.90;;;;;;4982061;28;20522;-74
2021/12/01 11:57:04;;;;;;;12.57;2.00;;;11.40;99.90;;;;;;4981608;28;20458;-75
2021/12/01 11:59:36;;;;;;;14.68;2.20;;;11.60;99.90;;;;;;4975172;28;20066;-75
2021/12/01 12:02:16;;;;;;;9.93;2.00;;;11.60;99.90;;;;;;4985650;28;20050;-75
2021/12/01 12:04:50;;;;;;;16.02;2.00;;;11.50;99.90;;;;;;5018246;28;20061;-74
2021/12/01 12:07:24;;;;;;;10.77;2.05;;;11.30;99.90;;;;;;4986879;28;20112;-75
2021/12/01 12:10:13;;;;;;;12.85;1.90;;;11.20;99.90;;;;;;4986841;28;20073;-75
2021/12/01 12:12:45;;;;;;;13.73;1.90;;;11.10;99.90;;;;;;5002162;28;20045;-74
2021/12/01 12:15:32;;;;;;;15.40;2.15;;;10.90;99.90;;;;;;5000318;28;20050;-75
2021/12/01 12:18:08;;;;;;;14.73;2.10;;;10.80;99.90;;;;;;4986711;28;20073;-79
2021/12/01 12:20:55;;;;;;;11.80;2.00;;;10.70;99.90;;;;;;4986012;28;20628;-76
2021/12/01 12:23:33;;;;;;;11.48;1.90;;;10.60;99.90;;;;;;5000058;28;20061;-76
2021/12/01 12:26:01;;;;;;;11.00;1.90;;;10.50;99.90;;;;;;4985160;28;20511;-75
2021/12/01 12:28:42;;;;;;;14.93;1.73;;;10.40;99.90;;;;;;4984746;28;20042;-77
2021/12/01 12:31:20;;;;;;;12.98;2.15;;;10.50;99.90;;;;;;4994214;28;20069;-78
2021/12/01 12:34:01;;;;;;;10.43;1.88;;;10.50;99.90;;;;;;4980382;28;20581;-78
2021/12/01 12:36:38;;;;;;;6.60;1.73;;;10.60;99.90;;;;;;4985799;28;20471;-75
2021/12/01 12:39:21;;;;;;;9.25;1.83;;;10.60;99.90;;;;;;4983079;28;20042;-77
2021/12/01 12:42:00;;;;;;;;;;;10.50;99.90;;;;;;4983588;28;20050;-77
2021/12/01 12:44:37;;;;;;;13.82;2.00;;;10.50;99.90;;;;;;4991270;28;20787;-77
2021/12/01 12:47:38;;;;;;;16.90;1.85;;;10.30;99.90;;;;;;4991985;28;20058;-74
2021/12/01 12:50:16;;;;;;;10.40;1.98;;;10.30;99.90;;;;;;4985999;28;20061;-76
2021/12/01 12:52:50;;;;;;;12.32;2.10;;;10.10;99.90;;;;;;4983453;28;20038;-76
2021/12/01 12:55:21;;;;;;;15.35;2.20;;;10.10;99.90;;;;;;4967818;28;20057;-77
2021/12/01 12:58:03;;;;;;;10.45;1.98;;;10.00;99.90;;;;;;4983348;28;20050;-76
2021/12/01 13:00:46;;;;;;;7.90;1.80;;;10.00;99.90;;;;;;4980889;28;20042;-77
2021/12/01 13:03:23;;;;;;;11.10;1.90;;;10.00;99.90;;;;;;4981506;28;20053;-77
2021/12/01 13:06:01;;;;;;;8.75;1.85;;;10.00;99.90;;;;;;4983395;28;20050;-76
2021/12/01 13:08:38;;;;;;;8.68;1.92;;;10.10;99.90;;;;;;4982325;28;20038;-78
2021/12/01 13:11:16;;;;;;;12.88;2.65;;;10.10;99.90;;;;;;4983467;28;20053;-76
2021/12/01 13:13:49;;;;;;;13.65;2.47;;;10.20;99.90;;;;;;4984425;28;20402;-77